sensor_id;sensor_type;location;lat;lon;timestamp;P1;durP1;ratioP1;P2;durP2;ratioP2
22268;SDS011;11303;50.772;19.670;2023-08-12T00:01:20;19.02;;;13.68;;
22268;SDS011;11303;50.772;19.670;2023-08-12T00:03:22;20.58;;;13.27;;
22268;SDS011;11303;50.772;19.670;2023-08-12T00:05:24;18.20;;;13.02;;
22268;SDS011;11303;50.772;19.670;2023-08-12T00:07:26;16.55;;;13.60;;
22268;SDS011;11303;50.772;19.670;2023-08-12T00:09:27;24.33;;;14.55;;
22268;SDS011;11303;50.772;19.670;2023-08-12T00:11:29;18.73;;;13.18;;
22268;SDS011;11303;50.772;19.670;2023-08-12T00:13:30;21.77;;;14.05;;
22268;SDS011;11303;50.772;19.670;2023-08-12T00:15:32;17.05;;;12.90;;
22268;SDS011;11303;50.772;19.670;2023-08-12T00:17:34;19.25;;;13.43;;
22268;SDS011;11303;50.772;19.670;2023-08-12T00:19:38;17.55;;;12.95;;
22268;SDS011;11303;50.772;19.670;2023-08-12T00:21:40;22.08;;;12.73;;
22268;SDS011;11303;50.772;19.670;2023-08-12T00:23:42;16.60;;;12.23;;
22268;SDS011;11303;50.772;19.670;2023-08-12T00:25:44;16.65;;;12.15;;
22268;SDS011;11303;50.772;19.670;2023-08-12T00:27:46;18.25;;;13.57;;
22268;SDS011;11303;50.772;19.670;2023-08-12T00:29:48;17.02;;;13.52;;
22268;SDS011;11303;50.772;19.670;2023-08-12T00:31:50;20.30;;;12.82;;
22268;SDS011;11303;50.772;19.670;2023-08-12T00:33:51;17.90;;;12.40;;
22268;SDS011;11303;50.772;19.670;2023-08-12T00:35:53;15.95;;;12.63;;
22268;SDS011;11303;50.772;19.670;2023-08-12T00:37:54;17.33;;;12.27;;
22268;SDS011;11303;50.772;19.670;2023-08-12T00:39:56;16.73;;;12.20;;
22268;SDS011;11303;50.772;19.670;2023-08-12T00:41:58;13.18;;;11.80;;
22268;SDS011;11303;50.772;19.670;2023-08-12T00:43:59;13.63;;;12.23;;
22268;SDS011;11303;50.772;19.670;2023-08-12T00:46:01;13.93;;;11.93;;
22268;SDS011;11303;50.772;19.670;2023-08-12T00:48:04;15.63;;;13.07;;
22268;SDS011;11303;50.772;19.670;2023-08-12T00:50:06;14.65;;;12.27;;
22268;SDS011;11303;50.772;19.670;2023-08-12T00:52:09;14.45;;;12.13;;
22268;SDS011;11303;50.772;19.670;2023-08-12T00:54:13;17.08;;;12.75;;
22268;SDS011;11303;50.772;19.670;2023-08-12T00:56:15;15.02;;;12.40;;
22268;SDS011;11303;50.772;19.670;2023-08-12T00:58:18;16.73;;;12.50;;
22268;SDS011;11303;50.772;19.670;2023-08-12T01:00:20;18.40;;;12.13;;
22268;SDS011;11303;50.772;19.670;2023-08-12T01:02:22;17.55;;;12.60;;
22268;SDS011;11303;50.772;19.670;2023-08-12T01:04:24;14.77;;;12.32;;
22268;SDS011;11303;50.772;19.670;2023-08-12T01:06:25;22.38;;;13.40;;
22268;SDS011;11303;50.772;19.670;2023-08-12T01:08:28;15.63;;;12.50;;
22268;SDS011;11303;50.772;19.670;2023-08-12T01:10:33;18.60;;;13.63;;
22268;SDS011;11303;50.772;19.670;2023-08-12T01:12:41;18.08;;;13.60;;
22268;SDS011;11303;50.772;19.670;2023-08-12T01:14:55;17.00;;;13.88;;
22268;SDS011;11303;50.772;19.670;2023-08-12T01:17:04;17.35;;;13.18;;
22268;SDS011;11303;50.772;19.670;2023-08-12T01:19:10;19.52;;;13.98;;
22268;SDS011;11303;50.772;19.670;2023-08-12T01:21:17;18.00;;;13.00;;
22268;SDS011;11303;50.772;19.670;2023-08-12T01:23:22;15.10;;;12.15;;
22268;SDS011;11303;50.772;19.670;2023-08-12T01:25:24;14.82;;;12.43;;
22268;SDS011;11303;50.772;19.670;2023-08-12T01:27:26;13.75;;;11.73;;
22268;SDS011;11303;50.772;19.670;2023-08-12T01:29:28;15.35;;;12.25;;
22268;SDS011;11303;50.772;19.670;2023-08-12T01:31:42;20.52;;;13.32;;
22268;SDS011;11303;50.772;19.670;2023-08-12T01:33:52;15.32;;;12.73;;
22268;SDS011;11303;50.772;19.670;2023-08-12T01:36:11;16.25;;;12.98;;
22268;SDS011;11303;50.772;19.670;2023-08-12T01:38:16;16.75;;;13.05;;
22268;SDS011;11303;50.772;19.670;2023-08-12T01:40:20;15.48;;;13.25;;
22268;SDS011;11303;50.772;19.670;2023-08-12T01:42:23;15.07;;;12.45;;
22268;SDS011;11303;50.772;19.670;2023-08-12T01:44:26;15.48;;;11.55;;
22268;SDS011;11303;50.772;19.670;2023-08-12T01:46:27;15.05;;;12.30;;
22268;SDS011;11303;50.772;19.670;2023-08-12T01:48:29;13.90;;;11.90;;
22268;SDS011;11303;50.772;19.670;2023-08-12T01:50:31;17.02;;;12.73;;
22268;SDS011;11303;50.772;19.670;2023-08-12T01:52:32;18.17;;;12.25;;
22268;SDS011;11303;50.772;19.670;2023-08-12T01:54:34;16.92;;;14.00;;
22268;SDS011;11303;50.772;19.670;2023-08-12T01:56:36;17.08;;;13.45;;
22268;SDS011;11303;50.772;19.670;2023-08-12T01:58:37;18.77;;;14.15;;
22268;SDS011;11303;50.772;19.670;2023-08-12T02:00:39;14.88;;;13.30;;
22268;SDS011;11303;50.772;19.670;2023-08-12T02:02:41;21.00;;;13.65;;
22268;SDS011;11303;50.772;19.670;2023-08-12T02:04:42;15.43;;;13.30;;
22268;SDS011;11303;50.772;19.670;2023-08-12T02:06:45;17.13;;;13.73;;
22268;SDS011;11303;50.772;19.670;2023-08-12T02:08:46;17.77;;;13.43;;
22268;SDS011;11303;50.772;19.670;2023-08-12T02:10:48;17.50;;;13.40;;
22268;SDS011;11303;50.772;19.670;2023-08-12T02:12:50;15.73;;;13.25;;
22268;SDS011;11303;50.772;19.670;2023-08-12T02:14:51;16.88;;;13.27;;
22268;SDS011;11303;50.772;19.670;2023-08-12T02:16:53;17.83;;;13.50;;
22268;SDS011;11303;50.772;19.670;2023-08-12T02:18:55;19.13;;;13.05;;
22268;SDS011;11303;50.772;19.670;2023-08-12T02:20:56;15.35;;;12.18;;
22268;SDS011;11303;50.772;19.670;2023-08-12T02:22:58;18.27;;;13.82;;
22268;SDS011;11303;50.772;19.670;2023-08-12T02:24:59;23.83;;;16.00;;
22268;SDS011;11303;50.772;19.670;2023-08-12T02:27:01;27.38;;;17.02;;
22268;SDS011;11303;50.772;19.670;2023-08-12T02:29:03;22.58;;;15.77;;
22268;SDS011;11303;50.772;19.670;2023-08-12T02:31:05;17.20;;;13.68;;
22268;SDS011;11303;50.772;19.670;2023-08-12T02:33:06;19.45;;;12.80;;
22268;SDS011;11303;50.772;19.670;2023-08-12T02:35:08;16.15;;;12.02;;
22268;SDS011;11303;50.772;19.670;2023-08-12T02:37:11;15.63;;;12.68;;
22268;SDS011;11303;50.772;19.670;2023-08-12T02:39:14;16.75;;;12.30;;
22268;SDS011;11303;50.772;19.670;2023-08-12T02:41:16;18.73;;;11.32;;
22268;SDS011;11303;50.772;19.670;2023-08-12T02:43:17;19.40;;;11.35;;
22268;SDS011;11303;50.772;19.670;2023-08-12T02:45:19;18.15;;;11.38;;
22268;SDS011;11303;50.772;19.670;2023-08-12T02:47:21;15.18;;;10.73;;
22268;SDS011;11303;50.772;19.670;2023-08-12T02:49:22;14.30;;;10.18;;
22268;SDS011;11303;50.772;19.670;2023-08-12T02:51:24;10.48;;;9.15;;
22268;SDS011;11303;50.772;19.670;2023-08-12T02:53:26;11.95;;;9.13;;
22268;SDS011;11303;50.772;19.670;2023-08-12T02:55:27;13.13;;;9.63;;
22268;SDS011;11303;50.772;19.670;2023-08-12T02:57:29;19.23;;;10.65;;
22268;SDS011;11303;50.772;19.670;2023-08-12T02:59:30;14.73;;;10.93;;
22268;SDS011;11303;50.772;19.670;2023-08-12T03:01:32;15.43;;;10.60;;
22268;SDS011;11303;50.772;19.670;2023-08-12T03:03:34;18.52;;;11.75;;
22268;SDS011;11303;50.772;19.670;2023-08-12T03:05:36;17.35;;;11.88;;
22268;SDS011;11303;50.772;19.670;2023-08-12T03:07:38;14.52;;;11.70;;
22268;SDS011;11303;50.772;19.670;2023-08-12T03:09:39;15.50;;;10.48;;
22268;SDS011;11303;50.772;19.670;2023-08-12T03:11:41;13.70;;;10.07;;
22268;SDS011;11303;50.772;19.670;2023-08-12T03:13:43;15.55;;;11.07;;
22268;SDS011;11303;50.772;19.670;2023-08-12T03:15:44;17.30;;;10.82;;
22268;SDS011;11303;50.772;19.670;2023-08-12T03:17:46;13.25;;;9.88;;
22268;SDS011;11303;50.772;19.670;2023-08-12T03:19:48;12.70;;;7.95;;
22268;SDS011;11303;50.772;19.670;2023-08-12T03:21:50;9.77;;;7.57;;
22268;SDS011;11303;50.772;19.670;2023-08-12T03:23:53;9.02;;;7.22;;
22268;SDS011;11303;50.772;19.670;2023-08-12T03:25:55;13.88;;;8.07;;
22268;SDS011;11303;50.772;19.670;2023-08-12T03:27:56;16.35;;;7.38;;
22268;SDS011;11303;50.772;19.670;2023-08-12T03:29:58;14.25;;;7.30;;
22268;SDS011;11303;50.772;19.670;2023-08-12T03:32:00;10.45;;;7.50;;
22268;SDS011;11303;50.772;19.670;2023-08-12T03:34:01;10.88;;;7.50;;
22268;SDS011;11303;50.772;19.670;2023-08-12T03:36:03;9.35;;;7.00;;
22268;SDS011;11303;50.772;19.670;2023-08-12T03:38:05;7.85;;;6.05;;
22268;SDS011;11303;50.772;19.670;2023-08-12T03:40:07;6.15;;;5.55;;
22268;SDS011;11303;50.772;19.670;2023-08-12T03:42:09;6.93;;;5.70;;
22268;SDS011;11303;50.772;19.670;2023-08-12T03:44:11;7.00;;;6.07;;
22268;SDS011;11303;50.772;19.670;2023-08-12T03:46:12;8.38;;;6.25;;
22268;SDS011;11303;50.772;19.670;2023-08-12T03:48:14;9.60;;;7.50;;
22268;SDS011;11303;50.772;19.670;2023-08-12T03:50:16;8.68;;;7.60;;
22268;SDS011;11303;50.772;19.670;2023-08-12T03:52:17;12.38;;;8.82;;
22268;SDS011;11303;50.772;19.670;2023-08-12T03:54:19;10.50;;;9.40;;
22268;SDS011;11303;50.772;19.670;2023-08-12T03:56:21;10.60;;;8.50;;
22268;SDS011;11303;50.772;19.670;2023-08-12T03:58:22;10.82;;;8.25;;
22268;SDS011;11303;50.772;19.670;2023-08-12T04:00:24;8.82;;;7.63;;
22268;SDS011;11303;50.772;19.670;2023-08-12T04:02:26;10.70;;;8.68;;
22268;SDS011;11303;50.772;19.670;2023-08-12T04:04:27;10.45;;;7.97;;
22268;SDS011;11303;50.772;19.670;2023-08-12T04:06:29;13.35;;;8.30;;
22268;SDS011;11303;50.772;19.670;2023-08-12T04:08:31;12.20;;;7.72;;
22268;SDS011;11303;50.772;19.670;2023-08-12T04:10:33;10.77;;;7.07;;
22268;SDS011;11303;50.772;19.670;2023-08-12T04:12:35;10.02;;;5.97;;
22268;SDS011;11303;50.772;19.670;2023-08-12T04:14:36;8.80;;;5.90;;
22268;SDS011;11303;50.772;19.670;2023-08-12T04:16:39;5.95;;;5.35;;
22268;SDS011;11303;50.772;19.670;2023-08-12T04:18:40;7.93;;;5.57;;
22268;SDS011;11303;50.772;19.670;2023-08-12T04:20:44;9.05;;;5.90;;
22268;SDS011;11303;50.772;19.670;2023-08-12T04:22:47;10.30;;;6.15;;
22268;SDS011;11303;50.772;19.670;2023-08-12T04:24:50;9.45;;;5.47;;
22268;SDS011;11303;50.772;19.670;2023-08-12T04:26:52;8.68;;;6.15;;
22268;SDS011;11303;50.772;19.670;2023-08-12T04:28:53;8.10;;;5.40;;
22268;SDS011;11303;50.772;19.670;2023-08-12T04:30:55;8.27;;;5.97;;
22268;SDS011;11303;50.772;19.670;2023-08-12T04:32:56;9.50;;;6.00;;
22268;SDS011;11303;50.772;19.670;2023-08-12T04:34:58;9.07;;;5.00;;
22268;SDS011;11303;50.772;19.670;2023-08-12T04:37:00;8.60;;;5.22;;
22268;SDS011;11303;50.772;19.670;2023-08-12T04:39:01;7.25;;;4.85;;
22268;SDS011;11303;50.772;19.670;2023-08-12T04:41:03;10.68;;;5.57;;
22268;SDS011;11303;50.772;19.670;2023-08-12T04:43:05;10.50;;;4.88;;
22268;SDS011;11303;50.772;19.670;2023-08-12T04:45:06;12.48;;;5.30;;
22268;SDS011;11303;50.772;19.670;2023-08-12T04:47:09;8.07;;;5.35;;
22268;SDS011;11303;50.772;19.670;2023-08-12T04:49:11;10.77;;;5.57;;
22268;SDS011;11303;50.772;19.670;2023-08-12T04:51:13;8.00;;;5.50;;
22268;SDS011;11303;50.772;19.670;2023-08-12T04:53:15;10.88;;;5.47;;
22268;SDS011;11303;50.772;19.670;2023-08-12T04:55:17;7.50;;;4.95;;
22268;SDS011;11303;50.772;19.670;2023-08-12T04:57:19;11.48;;;5.57;;
22268;SDS011;11303;50.772;19.670;2023-08-12T04:59:21;7.30;;;5.55;;
22268;SDS011;11303;50.772;19.670;2023-08-12T05:01:23;14.50;;;5.72;;
22268;SDS011;11303;50.772;19.670;2023-08-12T05:03:25;9.50;;;6.05;;
22268;SDS011;11303;50.772;19.670;2023-08-12T05:05:27;12.18;;;6.07;;
22268;SDS011;11303;50.772;19.670;2023-08-12T05:07:29;13.07;;;5.20;;
22268;SDS011;11303;50.772;19.670;2023-08-12T05:09:32;11.45;;;5.47;;
22268;SDS011;11303;50.772;19.670;2023-08-12T05:11:34;15.43;;;8.00;;
22268;SDS011;11303;50.772;19.670;2023-08-12T05:13:35;14.13;;;6.78;;
22268;SDS011;11303;50.772;19.670;2023-08-12T05:15:37;9.23;;;5.85;;
22268;SDS011;11303;50.772;19.670;2023-08-12T05:17:39;15.18;;;6.45;;
22268;SDS011;11303;50.772;19.670;2023-08-12T05:19:40;10.45;;;5.60;;
22268;SDS011;11303;50.772;19.670;2023-08-12T05:21:42;16.35;;;5.57;;
22268;SDS011;11303;50.772;19.670;2023-08-12T05:23:43;9.02;;;5.07;;
22268;SDS011;11303;50.772;19.670;2023-08-12T05:25:45;6.90;;;5.18;;
22268;SDS011;11303;50.772;19.670;2023-08-12T05:27:47;7.82;;;5.22;;
22268;SDS011;11303;50.772;19.670;2023-08-12T05:29:48;14.48;;;5.93;;
22268;SDS011;11303;50.772;19.670;2023-08-12T05:31:50;15.57;;;6.22;;
22268;SDS011;11303;50.772;19.670;2023-08-12T05:33:52;7.30;;;5.03;;
22268;SDS011;11303;50.772;19.670;2023-08-12T05:35:53;9.63;;;5.35;;
22268;SDS011;11303;50.772;19.670;2023-08-12T05:37:55;12.93;;;5.68;;
22268;SDS011;11303;50.772;19.670;2023-08-12T05:39:57;8.48;;;5.90;;
22268;SDS011;11303;50.772;19.670;2023-08-12T05:41:59;14.48;;;5.90;;
22268;SDS011;11303;50.772;19.670;2023-08-12T05:44:00;13.90;;;6.35;;
22268;SDS011;11303;50.772;19.670;2023-08-12T05:46:02;8.32;;;6.25;;
22268;SDS011;11303;50.772;19.670;2023-08-12T05:48:04;8.93;;;7.22;;
22268;SDS011;11303;50.772;19.670;2023-08-12T05:50:06;14.88;;;7.35;;
22268;SDS011;11303;50.772;19.670;2023-08-12T05:52:08;13.02;;;6.53;;
22268;SDS011;11303;50.772;19.670;2023-08-12T05:54:11;11.98;;;7.13;;
22268;SDS011;11303;50.772;19.670;2023-08-12T05:56:12;11.13;;;7.18;;
22268;SDS011;11303;50.772;19.670;2023-08-12T05:58:14;10.90;;;7.43;;
22268;SDS011;11303;50.772;19.670;2023-08-12T06:00:16;11.15;;;6.72;;
22268;SDS011;11303;50.772;19.670;2023-08-12T06:02:18;10.63;;;8.00;;
22268;SDS011;11303;50.772;19.670;2023-08-12T06:04:19;9.60;;;7.57;;
22268;SDS011;11303;50.772;19.670;2023-08-12T06:06:21;15.02;;;7.53;;
22268;SDS011;11303;50.772;19.670;2023-08-12T06:08:24;11.45;;;7.50;;
22268;SDS011;11303;50.772;19.670;2023-08-12T06:10:26;12.18;;;6.47;;
22268;SDS011;11303;50.772;19.670;2023-08-12T06:12:27;11.98;;;7.60;;
22268;SDS011;11303;50.772;19.670;2023-08-12T06:14:29;11.88;;;7.20;;
22268;SDS011;11303;50.772;19.670;2023-08-12T06:16:31;13.27;;;7.45;;
22268;SDS011;11303;50.772;19.670;2023-08-12T06:18:32;10.27;;;7.20;;
22268;SDS011;11303;50.772;19.670;2023-08-12T06:20:34;15.82;;;7.10;;
22268;SDS011;11303;50.772;19.670;2023-08-12T06:22:36;13.15;;;7.00;;
22268;SDS011;11303;50.772;19.670;2023-08-12T06:24:37;10.50;;;7.70;;
22268;SDS011;11303;50.772;19.670;2023-08-12T06:26:39;11.70;;;7.45;;
22268;SDS011;11303;50.772;19.670;2023-08-12T06:28:41;15.02;;;7.15;;
22268;SDS011;11303;50.772;19.670;2023-08-12T06:30:45;10.70;;;6.93;;
22268;SDS011;11303;50.772;19.670;2023-08-12T06:32:49;12.88;;;5.30;;
22268;SDS011;11303;50.772;19.670;2023-08-12T06:34:50;8.55;;;5.63;;
22268;SDS011;11303;50.772;19.670;2023-08-12T06:36:52;10.13;;;6.63;;
22268;SDS011;11303;50.772;19.670;2023-08-12T06:38:54;7.78;;;6.00;;
22268;SDS011;11303;50.772;19.670;2023-08-12T06:40:55;12.82;;;5.82;;
22268;SDS011;11303;50.772;19.670;2023-08-12T06:42:57;9.70;;;5.38;;
22268;SDS011;11303;50.772;19.670;2023-08-12T06:44:59;8.82;;;5.90;;
22268;SDS011;11303;50.772;19.670;2023-08-12T06:47:01;7.43;;;5.38;;
22268;SDS011;11303;50.772;19.670;2023-08-12T06:49:03;7.63;;;5.53;;
22268;SDS011;11303;50.772;19.670;2023-08-12T06:51:05;8.13;;;5.75;;
22268;SDS011;11303;50.772;19.670;2023-08-12T06:53:11;8.02;;;5.65;;
22268;SDS011;11303;50.772;19.670;2023-08-12T06:55:13;11.85;;;7.20;;
22268;SDS011;11303;50.772;19.670;2023-08-12T06:57:14;8.40;;;5.78;;
22268;SDS011;11303;50.772;19.670;2023-08-12T06:59:16;10.07;;;5.50;;
22268;SDS011;11303;50.772;19.670;2023-08-12T07:01:18;9.15;;;5.47;;
22268;SDS011;11303;50.772;19.670;2023-08-12T07:03:20;8.98;;;5.47;;
22268;SDS011;11303;50.772;19.670;2023-08-12T07:05:23;8.05;;;5.70;;
22268;SDS011;11303;50.772;19.670;2023-08-12T07:07:25;10.48;;;4.75;;
22268;SDS011;11303;50.772;19.670;2023-08-12T07:09:27;9.18;;;4.40;;
22268;SDS011;11303;50.772;19.670;2023-08-12T07:11:28;6.82;;;4.70;;
22268;SDS011;11303;50.772;19.670;2023-08-12T07:13:30;9.82;;;4.43;;
22268;SDS011;11303;50.772;19.670;2023-08-12T07:15:32;9.93;;;4.30;;
22268;SDS011;11303;50.772;19.670;2023-08-12T07:17:33;8.43;;;4.05;;
22268;SDS011;11303;50.772;19.670;2023-08-12T07:19:35;7.78;;;4.30;;
22268;SDS011;11303;50.772;19.670;2023-08-12T07:21:37;10.80;;;4.00;;
22268;SDS011;11303;50.772;19.670;2023-08-12T07:23:38;8.40;;;4.10;;
22268;SDS011;11303;50.772;19.670;2023-08-12T07:25:46;5.22;;;3.90;;
22268;SDS011;11303;50.772;19.670;2023-08-12T07:27:48;7.68;;;3.97;;
22268;SDS011;11303;50.772;19.670;2023-08-12T07:29:50;4.97;;;3.20;;
22268;SDS011;11303;50.772;19.670;2023-08-12T07:31:52;5.60;;;3.17;;
22268;SDS011;11303;50.772;19.670;2023-08-12T07:33:54;6.95;;;3.70;;
22268;SDS011;11303;50.772;19.670;2023-08-12T07:35:55;7.57;;;3.00;;
22268;SDS011;11303;50.772;19.670;2023-08-12T07:37:57;6.38;;;2.97;;
22268;SDS011;11303;50.772;19.670;2023-08-12T07:39:59;5.57;;;2.85;;
22268;SDS011;11303;50.772;19.670;2023-08-12T07:42:01;4.13;;;2.63;;
22268;SDS011;11303;50.772;19.670;2023-08-12T07:44:03;8.00;;;3.60;;
22268;SDS011;11303;50.772;19.670;2023-08-12T07:46:05;3.85;;;3.20;;
22268;SDS011;11303;50.772;19.670;2023-08-12T07:48:14;5.68;;;3.20;;
22268;SDS011;11303;50.772;19.670;2023-08-12T07:50:16;4.63;;;2.97;;
22268;SDS011;11303;50.772;19.670;2023-08-12T07:52:18;5.60;;;3.03;;
22268;SDS011;11303;50.772;19.670;2023-08-12T07:54:20;7.22;;;2.92;;
22268;SDS011;11303;50.772;19.670;2023-08-12T07:56:22;8.98;;;3.40;;
22268;SDS011;11303;50.772;19.670;2023-08-12T07:58:23;8.00;;;3.30;;
22268;SDS011;11303;50.772;19.670;2023-08-12T08:00:25;6.38;;;2.97;;
22268;SDS011;11303;50.772;19.670;2023-08-12T08:02:26;7.40;;;3.20;;
22268;SDS011;11303;50.772;19.670;2023-08-12T08:04:28;4.65;;;3.08;;
22268;SDS011;11303;50.772;19.670;2023-08-12T08:06:30;6.47;;;3.25;;
22268;SDS011;11303;50.772;19.670;2023-08-12T08:08:32;4.53;;;3.20;;
22268;SDS011;11303;50.772;19.670;2023-08-12T08:10:33;8.57;;;3.20;;
22268;SDS011;11303;50.772;19.670;2023-08-12T08:12:35;10.30;;;3.80;;
22268;SDS011;11303;50.772;19.670;2023-08-12T08:14:37;15.32;;;3.22;;
22268;SDS011;11303;50.772;19.670;2023-08-12T08:16:38;5.78;;;3.08;;
22268;SDS011;11303;50.772;19.670;2023-08-12T08:18:43;6.15;;;3.40;;
22268;SDS011;11303;50.772;19.670;2023-08-12T08:20:45;6.57;;;2.28;;
22268;SDS011;11303;50.772;19.670;2023-08-12T08:22:46;6.28;;;2.50;;
22268;SDS011;11303;50.772;19.670;2023-08-12T08:24:48;8.73;;;2.38;;
22268;SDS011;11303;50.772;19.670;2023-08-12T08:26:50;5.20;;;2.45;;
22268;SDS011;11303;50.772;19.670;2023-08-12T08:28:51;5.85;;;2.22;;
22268;SDS011;11303;50.772;19.670;2023-08-12T08:30:53;4.32;;;2.45;;
22268;SDS011;11303;50.772;19.670;2023-08-12T08:32:55;5.80;;;2.08;;
22268;SDS011;11303;50.772;19.670;2023-08-12T08:34:57;6.28;;;2.45;;
22268;SDS011;11303;50.772;19.670;2023-08-12T08:36:58;6.13;;;2.30;;
22268;SDS011;11303;50.772;19.670;2023-08-12T08:39:00;7.03;;;2.60;;
22268;SDS011;11303;50.772;19.670;2023-08-12T08:41:02;6.05;;;3.10;;
22268;SDS011;11303;50.772;19.670;2023-08-12T08:43:07;3.25;;;1.88;;
22268;SDS011;11303;50.772;19.670;2023-08-12T08:45:11;5.53;;;2.55;;
22268;SDS011;11303;50.772;19.670;2023-08-12T08:47:14;5.95;;;2.33;;
22268;SDS011;11303;50.772;19.670;2023-08-12T08:49:19;3.63;;;2.38;;
22268;SDS011;11303;50.772;19.670;2023-08-12T08:51:21;4.13;;;2.17;;
22268;SDS011;11303;50.772;19.670;2023-08-12T08:53:23;5.15;;;2.63;;
22268;SDS011;11303;50.772;19.670;2023-08-12T08:55:25;2.72;;;2.38;;
22268;SDS011;11303;50.772;19.670;2023-08-12T08:57:27;7.43;;;2.67;;
22268;SDS011;11303;50.772;19.670;2023-08-12T08:59:41;4.57;;;2.65;;
22268;SDS011;11303;50.772;19.670;2023-08-12T09:01:43;6.55;;;2.47;;
22268;SDS011;11303;50.772;19.670;2023-08-12T09:03:49;3.70;;;2.30;;
22268;SDS011;11303;50.772;19.670;2023-08-12T09:05:55;3.28;;;2.15;;
22268;SDS011;11303;50.772;19.670;2023-08-12T09:07:58;5.55;;;2.45;;
22268;SDS011;11303;50.772;19.670;2023-08-12T09:10:01;3.92;;;2.20;;
22268;SDS011;11303;50.772;19.670;2023-08-12T09:12:05;4.38;;;2.35;;
22268;SDS011;11303;50.772;19.670;2023-08-12T09:14:07;7.78;;;2.30;;
22268;SDS011;11303;50.772;19.670;2023-08-12T09:16:10;7.90;;;2.35;;
22268;SDS011;11303;50.772;19.670;2023-08-12T09:18:11;5.63;;;2.20;;
22268;SDS011;11303;50.772;19.670;2023-08-12T09:20:13;7.18;;;2.35;;
22268;SDS011;11303;50.772;19.670;2023-08-12T09:22:15;6.32;;;2.40;;
22268;SDS011;11303;50.772;19.670;2023-08-12T09:24:25;5.95;;;2.50;;
22268;SDS011;11303;50.772;19.670;2023-08-12T09:26:28;4.57;;;2.40;;
22268;SDS011;11303;50.772;19.670;2023-08-12T09:28:29;3.78;;;2.40;;
22268;SDS011;11303;50.772;19.670;2023-08-12T09:30:31;4.47;;;2.30;;
22268;SDS011;11303;50.772;19.670;2023-08-12T09:32:33;2.92;;;2.35;;
22268;SDS011;11303;50.772;19.670;2023-08-12T09:34:36;5.18;;;2.40;;
22268;SDS011;11303;50.772;19.670;2023-08-12T09:36:38;5.13;;;2.65;;
22268;SDS011;11303;50.772;19.670;2023-08-12T09:38:40;6.45;;;3.85;;
22268;SDS011;11303;50.772;19.670;2023-08-12T09:40:41;5.43;;;2.45;;
22268;SDS011;11303;50.772;19.670;2023-08-12T09:42:46;4.05;;;2.10;;
22268;SDS011;11303;50.772;19.670;2023-08-12T09:44:49;4.20;;;2.22;;
22268;SDS011;11303;50.772;19.670;2023-08-12T09:46:56;7.93;;;2.40;;
22268;SDS011;11303;50.772;19.670;2023-08-12T09:48:59;6.72;;;2.65;;
22268;SDS011;11303;50.772;19.670;2023-08-12T09:51:00;5.00;;;2.55;;
22268;SDS011;11303;50.772;19.670;2023-08-12T09:53:02;6.03;;;2.20;;
22268;SDS011;11303;50.772;19.670;2023-08-12T09:55:05;5.85;;;2.38;;
22268;SDS011;11303;50.772;19.670;2023-08-12T09:57:09;5.88;;;2.30;;
22268;SDS011;11303;50.772;19.670;2023-08-12T09:59:13;4.15;;;2.25;;
22268;SDS011;11303;50.772;19.670;2023-08-12T10:01:20;4.50;;;1.95;;
22268;SDS011;11303;50.772;19.670;2023-08-12T10:03:22;5.55;;;2.60;;
22268;SDS011;11303;50.772;19.670;2023-08-12T10:05:27;4.35;;;2.28;;
22268;SDS011;11303;50.772;19.670;2023-08-12T10:07:32;4.95;;;2.78;;
22268;SDS011;11303;50.772;19.670;2023-08-12T10:09:34;4.20;;;2.40;;
22268;SDS011;11303;50.772;19.670;2023-08-12T10:11:37;5.95;;;2.65;;
22268;SDS011;11303;50.772;19.670;2023-08-12T10:13:39;3.92;;;2.20;;
22268;SDS011;11303;50.772;19.670;2023-08-12T10:15:41;7.85;;;2.60;;
22268;SDS011;11303;50.772;19.670;2023-08-12T10:17:43;4.65;;;2.20;;
22268;SDS011;11303;50.772;19.670;2023-08-12T10:19:46;4.38;;;2.30;;
22268;SDS011;11303;50.772;19.670;2023-08-12T10:21:49;5.20;;;2.33;;
22268;SDS011;11303;50.772;19.670;2023-08-12T10:23:51;4.47;;;2.40;;
22268;SDS011;11303;50.772;19.670;2023-08-12T10:25:55;2.92;;;2.10;;
22268;SDS011;11303;50.772;19.670;2023-08-12T10:27:58;3.90;;;2.28;;
22268;SDS011;11303;50.772;19.670;2023-08-12T10:30:04;5.10;;;2.33;;
22268;SDS011;11303;50.772;19.670;2023-08-12T10:32:06;4.78;;;2.88;;
22268;SDS011;11303;50.772;19.670;2023-08-12T10:34:19;6.25;;;2.17;;
22268;SDS011;11303;50.772;19.670;2023-08-12T10:36:23;6.47;;;2.65;;
22268;SDS011;11303;50.772;19.670;2023-08-12T10:38:25;7.47;;;2.30;;
22268;SDS011;11303;50.772;19.670;2023-08-12T10:40:28;4.75;;;2.63;;
22268;SDS011;11303;50.772;19.670;2023-08-12T10:42:46;3.65;;;2.72;;
22268;SDS011;11303;50.772;19.670;2023-08-12T10:44:51;3.10;;;2.10;;
22268;SDS011;11303;50.772;19.670;2023-08-12T10:46:53;4.72;;;1.90;;
22268;SDS011;11303;50.772;19.670;2023-08-12T10:48:56;5.50;;;2.65;;
22268;SDS011;11303;50.772;19.670;2023-08-12T10:51:00;10.57;;;2.50;;
22268;SDS011;11303;50.772;19.670;2023-08-12T10:53:21;4.07;;;2.50;;
22268;SDS011;11303;50.772;19.670;2023-08-12T10:55:26;4.32;;;2.58;;
22268;SDS011;11303;50.772;19.670;2023-08-12T10:57:37;8.30;;;2.63;;
22268;SDS011;11303;50.772;19.670;2023-08-12T11:01:48;4.85;;;1.80;;
22268;SDS011;11303;50.772;19.670;2023-08-12T11:03:50;3.65;;;2.50;;
22268;SDS011;11303;50.772;19.670;2023-08-12T11:05:52;37.63;;;6.97;;
22268;SDS011;11303;50.772;19.670;2023-08-12T11:07:58;13.70;;;3.55;;
22268;SDS011;11303;50.772;19.670;2023-08-12T11:10:09;3.58;;;2.25;;
22268;SDS011;11303;50.772;19.670;2023-08-12T11:12:11;4.27;;;2.63;;
22268;SDS011;11303;50.772;19.670;2023-08-12T11:14:18;6.57;;;2.63;;
22268;SDS011;11303;50.772;19.670;2023-08-12T11:16:20;4.25;;;2.35;;
22268;SDS011;11303;50.772;19.670;2023-08-12T11:18:44;4.25;;;2.42;;
22268;SDS011;11303;50.772;19.670;2023-08-12T11:20:47;3.30;;;2.20;;
22268;SDS011;11303;50.772;19.670;2023-08-12T11:22:49;6.03;;;2.60;;
22268;SDS011;11303;50.772;19.670;2023-08-12T11:24:52;4.10;;;2.10;;
22268;SDS011;11303;50.772;19.670;2023-08-12T11:26:54;4.22;;;2.30;;
22268;SDS011;11303;50.772;19.670;2023-08-12T11:28:56;3.17;;;1.83;;
22268;SDS011;11303;50.772;19.670;2023-08-12T11:30:58;3.00;;;2.00;;
22268;SDS011;11303;50.772;19.670;2023-08-12T11:33:00;5.97;;;1.98;;
22268;SDS011;11303;50.772;19.670;2023-08-12T11:35:03;4.10;;;2.05;;
22268;SDS011;11303;50.772;19.670;2023-08-12T11:37:07;7.95;;;2.22;;
22268;SDS011;11303;50.772;19.670;2023-08-12T11:39:09;5.15;;;2.17;;
22268;SDS011;11303;50.772;19.670;2023-08-12T11:41:10;2.80;;;1.95;;
22268;SDS011;11303;50.772;19.670;2023-08-12T11:43:13;3.83;;;2.13;;
22268;SDS011;11303;50.772;19.670;2023-08-12T11:45:16;4.55;;;1.90;;
22268;SDS011;11303;50.772;19.670;2023-08-12T11:47:19;7.45;;;2.10;;
22268;SDS011;11303;50.772;19.670;2023-08-12T11:49:21;2.20;;;1.70;;
22268;SDS011;11303;50.772;19.670;2023-08-12T11:51:23;5.63;;;1.98;;
22268;SDS011;11303;50.772;19.670;2023-08-12T11:53:24;4.53;;;1.83;;
22268;SDS011;11303;50.772;19.670;2023-08-12T11:55:26;3.13;;;1.65;;
22268;SDS011;11303;50.772;19.670;2023-08-12T11:57:28;3.08;;;2.25;;
22268;SDS011;11303;50.772;19.670;2023-08-12T11:59:30;3.13;;;2.10;;
22268;SDS011;11303;50.772;19.670;2023-08-12T12:01:32;4.55;;;2.15;;
22268;SDS011;11303;50.772;19.670;2023-08-12T12:03:33;3.38;;;2.30;;